Time;durP1;ratioP1;P1;durP2;ratioP2;P2;SDS_P1;SDS_P2;PMS_P1;PMS_P2;Temp;Humidity;BMP_temperature;BMP_pressure;BME280_temperature;BME280_humidity;BME280_pressure;Samples;Min_cycle;Max_cycle;Signal;HPM_P1;HPM_P2
2021/05/18 00:00:31;;;;;;;0.20;0.20;;;;;;;-142.37;100.00;59669.53;4934479;29;20055;-58
2021/05/18 00:02:57;;;;;;;0.10;0.10;;;;;;;-142.37;100.00;59669.53;4963365;28;20087;-58
2021/05/18 00:05:25;;;;;;;0.10;0.10;;;;;;;-142.37;100.00;59669.53;5034237;28;20025;-58
2021/05/18 00:07:57;;;;;;;0.17;0.15;;;;;;;-142.37;100.00;59669.53;5034594;28;20056;-58
2021/05/18 00:13:13;;;;;;;0.22;0.22;;;;;;;-142.37;100.00;59669.53;5034464;28;20036;-58
2021/05/18 00:15:39;;;;;;;0.30;0.30;;;;;;;-142.37;100.00;59669.53;5033906;28;20116;-58
2021/05/18 00:18:05;;;;;;;0.90;0.40;;;;;;;-142.37;100.00;59669.53;5033985;28;20114;-58
2021/05/18 00:20:30;;;;;;;0.28;0.10;;;;;;;-142.37;100.00;59669.53;5033647;28;20485;-58
2021/05/18 00:22:56;;;;;;;0.13;0.13;;;;;;;-142.37;100.00;59669.53;5033815;28;20037;-58
2021/05/18 00:25:21;;;;;;;0.15;0.10;;;;;;;-142.37;100.00;59669.53;5033817;28;20071;-59
2021/05/18 00:27:47;;;;;;;0.20;0.20;;;;;;;-142.37;100.00;59669.53;5033835;28;20022;-58
2021/05/18 00:30:14;;;;;;;0.20;0.20;;;;;;;-142.37;100.00;59669.53;5015993;28;20034;-58
2021/05/18 00:32:39;;;;;;;0.15;0.10;;;;;;;-142.37;100.00;59669.53;5013854;28;20026;-58
2021/05/18 00:35:07;;;;;;;0.10;0.10;;;;;;;-142.37;100.00;59669.53;5033396;28;20033;-59
2021/05/18 00:37:33;;;;;;;0.20;0.20;;;;;;;-142.37;100.00;59669.53;5033565;28;20052;-59
2021/05/18 00:39:59;;;;;;;0.32;0.20;;;;;;;-142.37;100.00;59669.53;5033609;28;20029;-58
2021/05/18 00:42:25;;;;;;;0.75;0.20;;;;;;;-142.37;100.00;59669.53;5033846;28;20570;-58
2021/05/18 00:44:52;;;;;;;0.20;0.20;;;;;;;-142.37;100.00;59669.53;5032217;28;20036;-58
2021/05/18 00:47:17;;;;;;;0.30;0.30;;;;;;;-142.37;100.00;59669.53;5033518;28;20072;-58
2021/05/18 00:49:44;;;;;;;0.20;0.20;;;;;;;-142.37;100.00;59669.53;5033689;28;20531;-58
2021/05/18 00:52:09;;;;;;;0.10;0.10;;;;;;;-142.37;100.00;59669.53;5033408;28;20033;-59
2021/05/18 00:54:46;;;;;;;0.20;0.20;;;;;;;-142.37;100.00;59669.53;5033503;28;20384;-59
2021/05/18 00:59:56;;;;;;;0.85;0.40;;;;;;;-142.37;100.00;59669.53;5033353;28;20032;-58
2021/05/18 01:02:22;;;;;;;0.10;0.10;;;;;;;-142.37;100.00;59669.53;5033392;28;20030;-59
2021/05/18 01:04:48;;;;;;;0.38;0.30;;;;;;;-142.37;100.00;59669.53;5032874;28;20404;-59
2021/05/18 01:07:13;;;;;;;0.35;0.10;;;;;;;-142.37;100.00;59669.53;5033295;28;20433;-59
2021/05/18 01:09:39;;;;;;;0.10;0.10;;;;;;;-142.37;100.00;59669.53;5032896;28;20021;-59
2021/05/18 01:12:04;;;;;;;0.20;0.20;;;;;;;-142.37;100.00;59669.53;5033083;28;20069;-58
2021/05/18 01:14:29;;;;;;;0.17;0.17;;;;;;;-142.37;100.00;59669.53;5033098;28;20075;-58
2021/05/18 01:16:55;;;;;;;0.35;0.30;;;;;;;-142.37;100.00;59669.53;5033328;28;20041;-59
2021/05/18 01:19:26;;;;;;;0.40;0.40;;;;;;;-142.37;100.00;59669.53;5032864;28;20017;-59
2021/05/18 01:21:52;;;;;;;0.10;0.10;;;;;;;-142.37;100.00;59669.53;5032811;28;20041;-58
2021/05/18 01:24:19;;;;;;;0.30;0.30;;;;;;;-142.37;100.00;59669.53;5032764;28;20435;-58
2021/05/18 01:26:46;;;;;;;0.20;0.20;;;;;;;-142.37;100.00;59669.53;5032775;28;20102;-58
2021/05/18 01:29:13;;;;;;;0.30;0.30;;;;;;;-142.37;100.00;59669.53;5032859;28;20453;-59
2021/05/18 01:31:41;;;;;;;0.40;0.40;;;;;;;-142.37;100.00;59669.53;5032550;28;20113;-59
2021/05/18 01:34:06;;;;;;;0.47;0.47;;;;;;;-142.37;100.00;59669.53;5032407;28;20025;-59
2021/05/18 01:36:33;;;;;;;0.30;0.30;;;;;;;-142.37;100.00;59669.53;5031847;28;20024;-59
2021/05/18 01:44:30;;;;;;;0.50;0.50;;;;;;;-142.37;100.00;59669.53;5032693;28;20101;-59
2021/05/18 01:46:56;;;;;;;0.45;0.40;;;;;;;-142.37;100.00;59669.53;5032587;28;20385;-58
2021/05/18 01:49:21;;;;;;;0.50;0.50;;;;;;;-142.37;100.00;59669.53;5032513;28;20502;-58
2021/05/18 01:51:55;;;;;;;0.50;0.50;;;;;;;-142.37;100.00;59669.53;5032801;28;20025;-58
2021/05/18 01:54:27;;;;;;;0.60;0.60;;;;;;;-142.37;100.00;59669.53;5031208;28;20044;-59
2021/05/18 01:59:28;;;;;;;1.02;0.93;;;;;;;-142.37;100.00;59669.53;5032373;28;20026;-58
2021/05/18 02:01:57;;;;;;;0.40;0.40;;;;;;;-142.37;100.00;59669.53;5032665;28;20025;-58
2021/05/18 02:04:32;;;;;;;0.60;0.60;;;;;;;-142.37;100.00;59669.53;5031460;28;20033;-59
2021/05/18 02:06:59;;;;;;;0.55;0.55;;;;;;;-142.37;100.00;59669.53;5032420;28;20021;-59
2021/05/18 02:09:25;;;;;;;0.70;0.70;;;;;;;-142.37;100.00;59669.53;5032306;28;20022;-58
2021/05/18 02:11:51;;;;;;;0.65;0.65;;;;;;;-142.37;100.00;59669.53;5032293;28;20063;-58
2021/05/18 02:14:24;;;;;;;0.60;0.60;;;;;;;-142.37;100.00;59669.53;5032291;28;20032;-58
2021/05/18 02:16:49;;;;;;;0.60;0.60;;;;;;;-142.37;100.00;59669.53;5032308;28;20026;-59
2021/05/18 02:26:55;;;;;;;0.73;0.73;;;;;;;-142.37;100.00;59669.53;5032298;28;20060;-58
2021/05/18 02:29:20;;;;;;;0.65;0.63;;;;;;;-142.37;100.00;59669.53;5021600;28;20022;-60
2021/05/18 02:31:47;;;;;;;0.80;0.80;;;;;;;-142.37;100.00;59669.53;5012909;28;20440;-59
2021/05/18 02:34:12;;;;;;;0.90;0.90;;;;;;;-142.37;100.00;59669.53;5028532;28;20033;-58
2021/05/18 02:36:38;;;;;;;0.80;0.80;;;;;;;-142.37;100.00;59669.53;5031935;28;20083;-58
2021/05/18 02:39:04;;;;;;;0.70;0.70;;;;;;;-142.37;100.00;59669.53;5032144;28;20068;-58
2021/05/18 02:41:29;;;;;;;0.80;0.80;;;;;;;-142.37;100.00;59669.53;5031953;28;20022;-58
2021/05/18 02:44:02;;;;;;;0.82;0.82;;;;;;;-142.37;100.00;59669.53;5031763;28;20033;-59
2021/05/18 02:49:14;;;;;;;0.90;0.90;;;;;;;-142.37;100.00;59669.53;5024707;28;20034;-59
2021/05/18 02:51:42;;;;;;;0.80;0.80;;;;;;;-142.37;100.00;59669.53;5015815;28;20428;-58
2021/05/18 02:54:11;;;;;;;1.05;0.95;;;;;;;-142.37;100.00;59669.53;5015877;28;20030;-58
2021/05/18 02:56:45;;;;;;;0.70;0.70;;;;;;;-142.37;100.00;59669.53;5015691;28;20068;-58
2021/05/18 02:59:17;;;;;;;1.45;0.70;;;;;;;-142.37;100.00;59669.53;5015837;28;20017;-58
2021/05/18 03:01:44;;;;;;;0.98;0.82;;;;;;;-142.37;100.00;59669.53;5015647;28;20029;-58
2021/05/18 03:04:10;;;;;;;0.60;0.57;;;;;;;-142.37;100.00;59669.53;5031384;28;20045;-58
2021/05/18 03:06:36;;;;;;;0.70;0.63;;;;;;;-142.37;100.00;59669.53;5035290;28;20090;-58
2021/05/18 03:09:07;;;;;;;0.60;0.60;;;;;;;-142.37;100.00;59669.53;5035420;28;20029;-58
2021/05/18 03:11:32;;;;;;;0.80;0.80;;;;;;;-142.37;100.00;59669.53;5035175;28;20025;-58
2021/05/18 03:13:57;;;;;;;0.80;0.80;;;;;;;-142.37;100.00;59669.53;5035300;28;20141;-60
2021/05/18 03:16:23;;;;;;;0.90;0.90;;;;;;;-142.37;100.00;59669.53;5033823;28;20030;-59
2021/05/18 03:18:48;;;;;;;0.70;0.52;;;;;;;-142.37;100.00;59669.53;5035110;28;20116;-58
2021/05/18 03:21:13;;;;;;;0.77;0.77;;;;;;;-142.37;100.00;59669.53;5035033;28;20136;-58
2021/05/18 03:23:38;;;;;;;0.60;0.60;;;;;;;-142.37;100.00;59669.53;5034939;28;20033;-58
2021/05/18 03:26:04;;;;;;;0.60;0.60;;;;;;;-142.37;100.00;59669.53;5035045;28;20029;-58
2021/05/18 03:28:29;;;;;;;0.68;0.68;;;;;;;-142.37;100.00;59669.53;5031144;28;20442;-58
2021/05/18 03:36:08;;;;;;;0.43;0.43;;;;;;;-142.37;100.00;59669.53;5034569;28;20040;-59
2021/05/18 03:38:40;;;;;;;0.60;0.60;;;;;;;-142.37;100.00;59669.53;5034663;28;20417;-58
2021/05/18 03:41:22;;;;;;;0.50;0.50;;;;;;;-142.37;100.00;59669.53;5034822;28;20025;-58
2021/05/18 03:44:00;;;;;;;0.45;0.45;;;;;;;-142.37;100.00;59669.53;5034963;28;20385;-58
2021/05/18 03:54:43;;;;;;;;;;;;;;;-142.37;100.00;59669.53;5034980;28;20028;-58
2021/05/18 04:02:52;;;;;;;0.47;0.47;;;;;;;-142.37;100.00;59669.53;5033737;28;20869;-57
2021/05/18 04:16:49;;;;;;;0.50;0.50;;;;;;;-142.37;100.00;59669.53;5034490;28;20540;-58
2021/05/18 04:18:58;;;;;;;0.40;0.40;;;;;;;-142.37;100.00;59669.53;5033413;28;20037;-58
2021/05/18 04:21:45;;;;;;;0.45;0.45;;;;;;;-142.37;100.00;59669.53;5033875;28;20230;-58
2021/05/18 04:40:52;;;;;;;0.28;0.28;;;;;;;-142.37;100.00;59669.53;5014178;28;20745;-58
2021/05/18 05:01:17;;;;;;;0.30;0.30;;;;;;;-142.37;100.00;59669.53;5033380;28;20287;-58
2021/05/18 05:03:54;;;;;;;0.30;0.30;;;;;;;-142.37;100.00;59669.53;5033157;28;20021;-58
2021/05/18 05:09:18;;;;;;;0.40;0.38;;;;;;;-142.37;100.00;59669.53;5033329;28;20490;-57
2021/05/18 05:14:27;;;;;;;0.40;0.40;;;;;;;-142.37;100.00;59669.53;5033002;28;20113;-58
2021/05/18 05:16:52;;;;;;;0.10;0.10;;;;;;;-142.37;100.00;59669.53;5033049;28;20248;-58
2021/05/18 05:19:20;;;;;;;0.10;0.10;;;;;;;-142.37;100.00;59669.53;5033122;28;20026;-58
2021/05/18 05:21:45;;;;;;;0.28;0.28;;;;;;;-142.37;100.00;59669.53;5032655;28;20049;-57
2021/05/18 05:24:11;;;;;;;0.30;0.30;;;;;;;-142.37;100.00;59669.53;5031600;28;20037;-57
2021/05/18 05:26:38;;;;;;;0.20;0.20;;;;;;;-142.37;100.00;59669.53;5032469;28;20026;-57
2021/05/18 05:29:04;;;;;;;0.28;0.28;;;;;;;-142.37;100.00;59669.53;5024370;28;20030;-57
2021/05/18 05:31:30;;;;;;;0.30;0.30;;;;;;;-142.37;100.00;59669.53;5012999;28;20075;-58
2021/05/18 05:33:55;;;;;;;0.98;0.30;;;;;;;-142.37;100.00;59669.53;5019064;28;20063;-57
2021/05/18 05:36:21;;;;;;;0.15;0.13;;;;;;;-142.37;100.00;59669.53;5032807;28;20473;-58
2021/05/18 05:38:48;;;;;;;0.10;0.10;;;;;;;-142.37;100.00;59669.53;5032568;28;20022;-57
2021/05/18 05:41:13;;;;;;;0.30;0.20;;;;;;;-142.37;100.00;59669.53;5032784;28;20023;-57
2021/05/18 05:43:39;;;;;;;0.20;0.20;;;;;;;-142.37;100.00;59669.53;5032497;28;20025;-57
2021/05/18 05:46:04;;;;;;;0.20;0.20;;;;;;;-142.37;100.00;59669.53;5032564;28;20044;-57
2021/05/18 05:48:29;;;;;;;0.20;0.17;;;;;;;-142.37;100.00;59669.53;5032407;28;20029;-57
2021/05/18 05:50:55;;;;;;;0.20;0.20;;;;;;;-142.37;100.00;59669.53;5033206;28;20075;-57
2021/05/18 05:53:20;;;;;;;0.22;0.22;;;;;;;-142.37;100.00;59669.53;5032826;28;20529;-57
2021/05/18 05:55:45;;;;;;;0.20;0.20;;;;;;;-142.37;100.00;59669.53;5032077;28;20021;-57
2021/05/18 05:58:11;;;;;;;0.20;0.20;;;;;;;-142.37;100.00;59669.53;5032433;28;20496;-56
2021/05/18 06:00:37;;;;;;;0.20;0.20;;;;;;;-142.37;100.00;59669.53;5032183;28;20057;-57
2021/05/18 06:03:02;;;;;;;0.10;0.10;;;;;;;-142.37;100.00;59669.53;5032534;28;20036;-57
2021/05/18 06:05:28;;;;;;;0.10;0.10;;;;;;;-142.37;100.00;59669.53;5032238;28;20474;-57
2021/05/18 06:07:53;;;;;;;0.30;0.20;;;;;;;-142.37;100.00;59669.53;5032475;28;20026;-57
2021/05/18 06:10:42;;;;;;;0.10;0.10;;;;;;;-142.37;100.00;59669.53;5032274;28;20072;-57
2021/05/18 06:13:34;;;;;;;0.10;0.10;;;;;;;-142.37;100.00;59669.53;5031931;28;20065;-57
2021/05/18 06:43:27;;;;;;;0.10;0.10;;;;;;;-142.37;100.00;59669.53;4973179;28;20174;-59
2021/05/18 06:48:33;;;;;;;0.80;0.20;;;;;;;-142.37;100.00;59669.53;4975456;28;20019;-59
2021/05/18 06:50:59;;;;;;;0.75;0.20;;;;;;;-142.37;100.00;59669.53;5035196;28;20423;-60
2021/05/18 06:53:24;;;;;;;0.20;0.10;;;;;;;-142.37;100.00;59669.53;5033288;28;20072;-61
2021/05/18 06:55:52;;;;;;;0.28;0.17;;;;;;;-142.37;100.00;59669.53;5035036;28;20018;-60
2021/05/18 07:01:03;;;;;;;1.15;0.45;;;;;;;-142.37;100.00;59669.53;5045219;28;20037;-60
2021/05/18 07:03:34;;;;;;;0.32;0.30;;;;;;;-142.37;100.00;59669.53;5052192;28;20048;-60
2021/05/18 07:11:08;;;;;;;0.70;0.38;;;;;;;-142.37;100.00;59669.53;5033987;28;20522;-60
2021/05/18 07:13:33;;;;;;;0.40;0.30;;;;;;;-142.37;100.00;59669.53;5034905;28;20033;-60
2021/05/18 07:15:59;;;;;;;0.50;0.50;;;;;;;-142.37;100.00;59669.53;5034994;28;20049;-60
2021/05/18 07:18:24;;;;;;;1.52;0.40;;;;;;;-142.37;100.00;59669.53;5034838;28;20076;-60
2021/05/18 07:20:49;;;;;;;0.68;0.40;;;;;;;-142.37;100.00;59669.53;5034346;28;20034;-60
2021/05/18 07:23:17;;;;;;;1.98;0.57;;;;;;;-142.37;100.00;59669.53;5034526;28;20029;-60
2021/05/18 07:25:42;;;;;;;0.95;0.50;;;;;;;-142.37;100.00;59669.53;5032257;28;20026;-61
2021/05/18 07:28:08;;;;;;;0.60;0.30;;;;;;;-142.37;100.00;59669.53;5033271;28;20013;-60
2021/05/18 07:30:36;;;;;;;1.85;0.60;;;;;;;-142.37;100.00;59669.53;5033092;28;20036;-60
2021/05/18 07:33:01;;;;;;;0.60;0.35;;;;;;;-142.37;100.00;59669.53;5031305;28;20029;-60
2021/05/18 07:35:27;;;;;;;2.10;0.70;;;;;;;-142.37;100.00;59669.53;5033515;28;20437;-60
2021/05/18 07:37:52;;;;;;;1.45;0.52;;;;;;;-142.37;100.00;59669.53;5033411;28;20025;-60
2021/05/18 07:40:18;;;;;;;1.48;0.50;;;;;;;-142.37;100.00;59669.53;5033272;28;20029;-60
2021/05/18 07:42:43;;;;;;;1.80;0.50;;;;;;;-142.37;100.00;59669.53;5032680;28;20510;-61
2021/05/18 07:45:08;;;;;;;2.00;0.60;;;;;;;-142.37;100.00;59669.53;5033873;28;20356;-60
2021/05/18 07:47:36;;;;;;;1.27;0.32;;;;;;;-142.37;100.00;59669.53;5033066;28;20053;-60
2021/05/18 07:50:07;;;;;;;1.75;0.40;;;;;;;-142.37;100.00;59669.53;5034369;28;20376;-60
2021/05/18 08:06:12;;;;;;;0.57;0.30;;;;;;;-142.37;100.00;59669.53;5018891;28;20036;-60
2021/05/18 08:08:39;;;;;;;0.63;0.32;;;;;;;-142.37;100.00;59669.53;5032206;28;20025;-60
2021/05/18 08:11:05;;;;;;;0.88;0.35;;;;;;;-142.37;100.00;59669.53;5032612;28;20032;-60
2021/05/18 08:13:30;;;;;;;0.85;0.38;;;;;;;-142.37;100.00;59669.53;5032537;28;20104;-60
2021/05/18 08:16:44;;;;;;;2.25;0.57;;;;;;;-142.37;100.00;59669.53;5037722;28;20025;-62
2021/05/18 08:22:03;;;;;;;0.45;0.30;;;;;;;-142.37;100.00;59669.53;5030372;28;20095;-60
2021/05/18 08:53:07;;;;;;;0.88;0.20;;;;;;;-142.37;100.00;59669.53;5032300;28;20060;-59
2021/05/18 09:29:57;;;;;;;2.03;0.20;;;;;;;-142.37;100.00;59669.53;5029984;28;20084;-59
2021/05/18 09:37:58;;;;;;;0.63;0.40;;;;;;;-142.37;100.00;59669.53;5032199;28;20453;-59
2021/05/18 10:35:57;;;;;;;1.17;0.40;;;;;;;-142.37;100.00;59669.53;5049429;28;20048;-61
2021/05/18 10:38:39;;;;;;;0.43;0.40;;;;;;;-142.37;100.00;59669.53;5049479;28;20029;-60
2021/05/18 10:41:15;;;;;;;0.98;0.40;;;;;;;-142.37;100.00;59669.53;5049732;28;20040;-60
2021/05/18 10:43:41;;;;;;;0.40;0.20;;;;;;;-142.37;100.00;59669.53;5049453;28;20064;-61
2021/05/18 10:46:18;;;;;;;0.75;0.20;;;;;;;-142.37;100.00;59669.53;5031918;28;20029;-62
2021/05/18 10:48:44;;;;;;;0.75;0.30;;;;;;;-142.37;100.00;59669.53;5039764;28;20415;-61
2021/05/18 10:51:35;;;;;;;1.38;0.40;;;;;;;-142.37;100.00;59669.53;5045018;28;20132;-61
2021/05/18 10:54:23;;;;;;;0.82;0.30;;;;;;;-142.37;100.00;59669.53;5049562;28;20021;-61
2021/05/18 10:59:47;;;;;;;0.50;0.20;;;;;;;-142.37;100.00;59669.53;5049431;28;20112;-61
2021/05/18 11:02:12;;;;;;;1.48;0.40;;;;;;;-142.37;100.00;59669.53;5043498;28;20135;-61
2021/05/18 11:04:49;;;;;;;0.60;0.40;;;;;;;-142.37;100.00;59669.53;5071690;28;20099;-61
2021/05/18 11:07:19;;;;;;;1.02;0.20;;;;;;;-142.37;100.00;59669.53;5070961;28;20028;-61
2021/05/18 11:09:45;;;;;;;0.52;0.20;;;;;;;-142.37;100.00;59669.53;5066535;28;20026;-61
2021/05/18 11:12:12;;;;;;;0.50;0.28;;;;;;;-142.37;100.00;59669.53;5088479;28;20032;-61
2021/05/18 11:14:49;;;;;;;0.57;0.10;;;;;;;-142.37;100.00;59669.53;5078491;28;20440;-62
2021/05/18 11:17:17;;;;;;;1.10;0.20;;;;;;;-142.37;100.00;59669.53;5063121;28;20024;-61
2021/05/18 11:19:46;;;;;;;0.88;0.20;;;;;;;-142.37;100.00;59669.53;5072752;28;20032;-60
2021/05/18 11:22:12;;;;;;;0.20;0.20;;;;;;;-142.37;100.00;59669.53;5072857;28;20048;-61
2021/05/18 11:24:48;;;;;;;1.55;0.32;;;;;;;-142.37;100.00;59669.53;5073490;28;20498;-61
2021/05/18 11:27:24;;;;;;;0.55;0.20;;;;;;;-142.37;100.00;59669.53;5070563;28;20032;-60
2021/05/18 11:29:49;;;;;;;0.25;0.22;;;;;;;-142.37;100.00;59669.53;5069835;28;20021;-62
2021/05/18 11:32:14;;;;;;;0.35;0.30;;;;;;;-142.37;100.00;59669.53;5073110;28;20372;-61
2021/05/18 11:34:51;;;;;;;1.45;0.32;;;;;;;-142.37;100.00;59669.53;5068210;28;20079;-61
2021/05/18 11:37:16;;;;;;;0.70;0.17;;;;;;;-142.37;100.00;59669.53;5073638;28;20041;-62
2021/05/18 11:39:42;;;;;;;1.30;0.40;;;;;;;-142.37;100.00;59669.53;5071797;28;20403;-62
2021/05/18 11:42:07;;;;;;;1.85;0.40;;;;;;;-142.37;100.00;59669.53;5072309;28;20407;-62
2021/05/18 11:44:38;;;;;;;1.65;0.50;;;;;;;-142.37;100.00;59669.53;5069034;28;20030;-61
2021/05/18 11:47:04;;;;;;;0.73;0.50;;;;;;;-142.37;100.00;59669.53;5070680;28;20056;-61
2021/05/18 11:49:29;;;;;;;1.52;0.30;;;;;;;-142.37;100.00;59669.53;5072090;28;20117;-61
2021/05/18 11:51:56;;;;;;;0.60;0.17;;;;;;;-142.37;100.00;59669.53;5073011;28;20024;-61
2021/05/18 11:54:27;;;;;;;0.77;0.10;;;;;;;-142.37;100.00;59669.53;5072913;28;20025;-61
2021/05/18 11:56:52;;;;;;;2.60;0.57;;;;;;;-142.37;100.00;59669.53;5072534;28;20035;-61
2021/05/18 11:59:20;;;;;;;0.77;0.30;;;;;;;-142.37;100.00;59669.53;5069643;28;20032;-61
2021/05/18 12:02:01;;;;;;;0.75;0.25;;;;;;;-142.37;100.00;59669.53;5070384;28;20037;-61
2021/05/18 12:04:27;;;;;;;1.33;0.30;;;;;;;-142.37;100.00;59669.53;5071351;28;20387;-63
2021/05/18 12:06:57;;;;;;;2.55;0.50;;;;;;;-142.37;100.00;59669.53;5070013;28;20016;-62
2021/05/18 12:09:23;;;;;;;1.98;0.50;;;;;;;-142.37;100.00;59669.53;5069497;28;20406;-63
2021/05/18 12:11:56;;;;;;;1.30;0.40;;;;;;;-142.37;100.00;59669.53;5069415;28;20017;-61
2021/05/18 12:14:23;;;;;;;2.22;0.60;;;;;;;-142.37;100.00;59669.53;5067744;28;20040;-62
2021/05/18 12:16:49;;;;;;;0.85;0.20;;;;;;;-142.37;100.00;59669.53;5065870;28;20106;-61
2021/05/18 12:19:16;;;;;;;1.92;0.57;;;;;;;-142.37;100.00;59669.53;5069588;28;20111;-61
2021/05/18 12:21:46;;;;;;;0.98;0.28;;;;;;;-142.37;100.00;59669.53;5067131;28;20040;-62
2021/05/18 12:24:20;;;;;;;0.85;0.40;;;;;;;-142.37;100.00;59669.53;5071346;28;20066;-61
2021/05/18 12:27:00;;;;;;;1.75;0.65;;;;;;;-142.37;100.00;59669.53;5070928;28;20066;-61
2021/05/18 12:29:43;;;;;;;0.80;0.30;;;;;;;-142.37;100.00;59669.53;5069351;28;20119;-62
2021/05/18 12:32:28;;;;;;;1.35;0.60;;;;;;;-142.37;100.00;59669.53;5070113;28;20050;-62
2021/05/18 12:35:22;;;;;;;1.80;0.50;;;;;;;-142.37;100.00;59669.53;5061996;28;20021;-61
2021/05/18 12:37:54;;;;;;;2.72;0.47;;;;;;;-142.37;100.00;59669.53;5071760;28;20024;-62
2021/05/18 12:40:26;;;;;;;0.90;0.50;;;;;;;-142.37;100.00;59669.53;5067856;28;20171;-62
2021/05/18 12:42:53;;;;;;;2.17;0.68;;;;;;;-142.37;100.00;59669.53;5067419;28;20032;-62
2021/05/18 12:45:26;;;;;;;1.42;0.57;;;;;;;-142.37;100.00;59669.53;5070126;28;20024;-62
2021/05/18 12:47:54;;;;;;;0.90;0.30;;;;;;;-142.37;100.00;59669.53;5069864;28;20013;-62
2021/05/18 12:50:19;;;;;;;0.38;0.35;;;;;;;-142.37;100.00;59669.53;5067437;28;20028;-61
2021/05/18 12:52:50;;;;;;;1.00;0.57;;;;;;;-142.37;100.00;59669.53;5070951;28;20432;-61
2021/05/18 12:55:24;;;;;;;1.67;0.93;;;;;;;-142.37;100.00;59669.53;5069695;28;20039;-62
2021/05/18 12:57:51;;;;;;;;;;;;;;;-142.37;100.00;59669.53;5061277;28;20013;-62
2021/05/18 13:00:23;;;;;;;0.95;0.47;;;;;;;-142.37;100.00;59669.53;5066201;28;19928;-61
2021/05/18 13:02:49;;;;;;;1.40;0.60;;;;;;;-142.37;100.00;59669.53;5065689;28;20043;-62
2021/05/18 13:05:26;;;;;;;1.25;0.43;;;;;;;-142.37;100.00;59669.53;5070685;28;20028;-61
2021/05/18 13:08:14;;;;;;;0.95;0.47;;;;;;;-142.37;100.00;59669.53;5063586;28;20025;-61
2021/05/18 13:13:37;;;;;;;1.17;0.50;;;;;;;-142.37;100.00;59669.53;5069381;28;20028;-61
2021/05/18 13:16:19;;;;;;;1.70;0.40;;;;;;;-142.37;100.00;59669.53;5067221;28;20037;-62
2021/05/18 13:19:01;;;;;;;1.02;0.45;;;;;;;-142.37;100.00;59669.53;5069880;28;20056;-62
2021/05/18 13:21:37;;;;;;;1.25;0.40;;;;;;;-142.37;100.00;59669.53;5063373;28;20053;-61
2021/05/18 13:26:36;;;;;;;3.90;0.68;;;;;;;-142.37;100.00;59669.53;5065833;28;20145;-61
2021/05/18 13:29:12;;;;;;;1.80;0.30;;;;;;;-142.37;100.00;59669.53;5065864;28;20495;-62
2021/05/18 13:31:39;;;;;;;0.60;0.30;;;;;;;-142.37;100.00;59669.53;5062981;28;20020;-61
2021/05/18 13:34:06;;;;;;;3.45;0.50;;;;;;;-142.37;100.00;59669.53;5066685;28;20024;-62
2021/05/18 13:36:33;;;;;;;2.45;0.40;;;;;;;-142.37;100.00;59669.53;5066175;28;20030;-61
2021/05/18 13:39:11;;;;;;;1.85;0.30;;;;;;;-142.37;100.00;59669.53;5068751;28;20103;-61
2021/05/18 13:41:38;;;;;;;2.75;0.40;;;;;;;-142.37;100.00;59669.53;5067616;28;20067;-61
2021/05/18 13:44:07;;;;;;;2.45;0.40;;;;;;;-142.37;100.00;59669.53;5067801;28;20037;-60
2021/05/18 13:46:33;;;;;;;1.95;0.30;;;;;;;-142.37;100.00;59669.53;5061214;28;20021;-61
2021/05/18 13:48:59;;;;;;;0.52;0.50;;;;;;;-142.37;100.00;59669.53;5078072;28;20024;-60
2021/05/18 13:51:24;;;;;;;0.73;0.20;;;;;;;-142.37;100.00;59669.53;5072032;28;20028;-61
2021/05/18 13:53:50;;;;;;;1.80;0.35;;;;;;;-142.37;100.00;59669.53;5071065;28;20162;-61
2021/05/18 13:56:16;;;;;;;1.05;0.28;;;;;;;-142.37;100.00;59669.53;5071393;28;20069;-62
2021/05/18 13:58:41;;;;;;;1.95;0.35;;;;;;;-142.37;100.00;59669.53;5091052;28;20031;-61
2021/05/18 14:01:08;;;;;;;0.93;0.20;;;;;;;-142.37;100.00;59669.53;5063131;28;20028;-61
2021/05/18 14:03:34;;;;;;;1.60;0.40;;;;;;;-142.37;100.00;59669.53;5057824;28;20519;-61
2021/05/18 14:06:00;;;;;;;1.33;0.50;;;;;;;-142.37;100.00;59669.53;5055566;28;20029;-60
2021/05/18 14:08:39;;;;;;;1.35;0.30;;;;;;;-142.37;100.00;59669.53;5068373;28;20017;-61
2021/05/18 14:11:07;;;;;;;0.88;0.30;;;;;;;-142.37;100.00;59669.53;5082867;28;20035;-60
2021/05/18 14:13:36;;;;;;;2.42;0.30;;;;;;;-142.37;100.00;59669.53;5092313;28;20482;-61
2021/05/18 14:16:03;;;;;;;2.08;0.52;;;;;;;-142.37;100.00;59669.53;5081822;28;20035;-61
2021/05/18 14:18:29;;;;;;;1.55;0.50;;;;;;;-142.37;100.00;59669.53;5070588;28;20115;-61
2021/05/18 14:20:55;;;;;;;1.23;0.50;;;;;;;-142.37;100.00;59669.53;5068618;28;20163;-60
2021/05/18 14:23:23;;;;;;;0.70;0.40;;;;;;;-142.37;100.00;59669.53;5060553;28;20052;-61
2021/05/18 14:25:50;;;;;;;1.10;0.40;;;;;;;-142.37;100.00;59669.53;5071691;28;20476;-61
2021/05/18 14:28:17;;;;;;;0.30;0.20;;;;;;;-142.37;100.00;59669.53;5066681;28;20032;-61
2021/05/18 14:30:42;;;;;;;0.88;0.30;;;;;;;-142.37;100.00;59669.53;5072931;28;20099;-61
2021/05/18 14:33:07;;;;;;;0.93;0.30;;;;;;;-142.37;100.00;59669.53;5071711;28;20111;-61
2021/05/18 14:35:33;;;;;;;0.73;0.20;;;;;;;-142.37;100.00;59669.53;5065675;28;20430;-61
2021/05/18 14:38:05;;;;;;;1.02;0.25;;;;;;;-142.37;100.00;59669.53;5080145;28;20115;-64
2021/05/18 14:43:29;;;;;;;1.60;0.45;;;;;;;-142.37;100.00;59669.53;5060538;28;20477;-64
2021/05/18 14:45:54;;;;;;;1.13;0.30;;;;;;;-142.37;100.00;59669.53;5067319;28;20045;-64
2021/05/18 14:54:10;;;;;;;1.33;0.30;;;;;;;-142.37;100.00;59669.53;5074665;28;20065;-64
2021/05/18 14:56:35;;;;;;;0.57;0.20;;;;;;;-142.37;100.00;59669.53;5074591;28;20051;-64
2021/05/18 14:59:01;;;;;;;0.15;0.10;;;;;;;-142.37;100.00;59669.53;5074566;28;20024;-64
2021/05/18 15:01:26;;;;;;;1.50;0.40;;;;;;;-142.37;100.00;59669.53;5074198;28;20418;-63
2021/05/18 15:03:51;;;;;;;0.80;0.30;;;;;;;-142.37;100.00;59669.53;5075702;28;20028;-63
2021/05/18 15:06:17;;;;;;;0.38;0.20;;;;;;;-142.37;100.00;59669.53;5074677;28;20591;-63
2021/05/18 15:08:42;;;;;;;1.13;0.30;;;;;;;-142.37;100.00;59669.53;5075307;28;20031;-63
2021/05/18 15:11:08;;;;;;;1.13;0.40;;;;;;;-142.37;100.00;59669.53;5075461;28;20035;-64
2021/05/18 15:13:34;;;;;;;1.00;0.25;;;;;;;-142.37;100.00;59669.53;5073953;28;20044;-64
2021/05/18 15:15:59;;;;;;;0.35;0.20;;;;;;;-142.37;100.00;59669.53;5075307;28;20024;-63
2021/05/18 15:18:25;;;;;;;1.05;0.40;;;;;;;-142.37;100.00;59669.53;5075059;28;20020;-64
2021/05/18 15:20:50;;;;;;;1.80;0.38;;;;;;;-142.37;100.00;59669.53;5074970;28;20045;-64
2021/05/18 15:23:16;;;;;;;0.82;0.30;;;;;;;-142.37;100.00;59669.53;5075222;28;20020;-63
2021/05/18 15:25:41;;;;;;;1.75;0.40;;;;;;;-142.37;100.00;59669.53;5075519;28;20463;-64
2021/05/18 15:28:06;;;;;;;1.85;0.50;;;;;;;-142.37;100.00;59669.53;5074984;28;20017;-64
2021/05/18 15:30:31;;;;;;;1.58;0.40;;;;;;;-142.37;100.00;59669.53;5074927;28;20024;-64
2021/05/18 15:32:57;;;;;;;0.63;0.40;;;;;;;-142.37;100.00;59669.53;5075086;28;20028;-63
2021/05/18 15:35:22;;;;;;;0.85;0.45;;;;;;;-142.37;100.00;59669.53;5074292;28;20021;-63
2021/05/18 15:37:47;;;;;;;1.00;0.30;;;;;;;-142.37;100.00;59669.53;5074891;28;20043;-63
2021/05/18 15:40:13;;;;;;;0.63;0.20;;;;;;;-142.37;100.00;59669.53;5074769;28;20024;-63
2021/05/18 15:42:39;;;;;;;0.65;0.30;;;;;;;-142.37;100.00;59669.53;5074427;28;20024;-63
2021/05/18 15:45:05;;;;;;;1.10;0.28;;;;;;;-142.37;100.00;59669.53;5074896;28;20114;-63
2021/05/18 15:47:32;;;;;;;1.35;0.50;;;;;;;-142.37;100.00;59669.53;5074504;28;20111;-63
2021/05/18 15:49:57;;;;;;;2.20;0.40;;;;;;;-142.37;100.00;59669.53;5074717;28;20024;-62
2021/05/18 15:52:23;;;;;;;1.10;0.28;;;;;;;-142.37;100.00;59669.53;5074548;28;20025;-63
2021/05/18 15:54:49;;;;;;;0.52;0.20;;;;;;;-142.37;100.00;59669.53;5073537;28;20108;-63
2021/05/18 15:57:16;;;;;;;1.38;0.30;;;;;;;-142.37;100.00;59669.53;5073289;28;20025;-64
2021/05/18 15:59:43;;;;;;;0.63;0.25;;;;;;;-142.37;100.00;59669.53;5074576;28;20032;-63
2021/05/18 16:02:08;;;;;;;2.17;0.43;;;;;;;-142.37;100.00;59669.53;5074295;28;20029;-63
2021/05/18 16:04:34;;;;;;;1.52;0.20;;;;;;;-142.37;100.00;59669.53;5074266;28;20027;-63